createdAt,value
2022-12-15T00:02:19.949Z,40.67
2022-12-15T00:05:06.679Z,49.70
2022-12-15T00:07:53.028Z,45.78
2022-12-15T00:10:38.940Z,47.53
2022-12-15T00:13:33.795Z,49.00
2022-12-15T00:16:19.587Z,52.80
2022-12-15T00:19:05.294Z,42.20
2022-12-15T00:21:51.098Z,45.95
2022-12-15T00:24:36.570Z,47.72
2022-12-15T00:27:23.072Z,46.38
2022-12-15T00:30:08.684Z,45.38
2022-12-15T00:32:54.430Z,46.88
2022-12-15T00:35:39.810Z,42.78
2022-12-15T00:38:26.986Z,48.55
2022-12-15T00:40:59.029Z,38.80
2022-12-15T00:43:31.291Z,49.53
2022-12-15T00:46:18.381Z,53.03
2022-12-15T00:48:46.514Z,46.22
2022-12-15T00:51:50.583Z,52.78
2022-12-15T00:54:36.696Z,52.40
2022-12-15T00:57:22.207Z,48.80
2022-12-15T01:00:07.997Z,45.75
2022-12-15T01:02:53.417Z,49.25
2022-12-15T01:05:39.190Z,53.08
2022-12-15T01:08:24.292Z,50.15
2022-12-15T01:11:09.737Z,50.88
2022-12-15T01:13:55.250Z,43.75
2022-12-15T01:16:40.789Z,47.22
2022-12-15T01:19:27.560Z,45.20
2022-12-15T01:21:54.785Z,45.33
2022-12-15T01:24:21.748Z,42.08
2022-12-15T01:26:48.966Z,43.90
2022-12-15T01:29:15.955Z,43.15
2022-12-15T01:31:44.070Z,45.28
2022-12-15T01:34:11.065Z,46.95
2022-12-15T01:36:38.241Z,48.58
2022-12-15T01:39:05.050Z,47.28
2022-12-15T01:41:32.226Z,46.35
2022-12-15T01:44:22.630Z,40.80
2022-12-15T01:46:55.495Z,45.10
2022-12-15T01:49:26.967Z,42.58
2022-12-15T01:51:59.613Z,48.15
2022-12-15T01:54:31.837Z,41.22
2022-12-15T01:57:09.569Z,47.70
2022-12-15T01:59:41.136Z,47.13
2022-12-15T02:02:08.370Z,39.65
2022-12-15T02:04:37.984Z,44.60
2022-12-15T02:07:05.480Z,43.42
2022-12-15T02:09:32.657Z,41.35
2022-12-15T02:12:29.368Z,41.45
2022-12-15T02:15:11.340Z,43.72
2022-12-15T02:18:06.579Z,44.92
2022-12-15T02:20:38.347Z,42.58
2022-12-15T02:23:23.919Z,45.83
2022-12-15T02:26:12.779Z,40.15
2022-12-15T02:29:03.266Z,41.75
2022-12-15T02:31:57.940Z,43.75
2022-12-15T02:34:40.175Z,42.13
2022-12-15T02:37:35.723Z,41.40
2022-12-15T02:40:05.614Z,42.00
2022-12-15T02:42:36.283Z,41.95
2022-12-15T02:45:09.391Z,35.28
2022-12-15T02:47:47.152Z,43.85
2022-12-15T02:50:25.213Z,46.60
2022-12-15T02:52:58.066Z,48.13
2022-12-15T02:55:34.186Z,45.05
2022-12-15T02:58:06.543Z,47.38
2022-12-15T03:00:42.885Z,46.00
2022-12-15T03:03:10.991Z,48.03
2022-12-15T03:05:38.252Z,52.20
2022-12-15T03:08:05.328Z,43.17
2022-12-15T03:10:32.449Z,46.88
2022-12-15T03:12:59.247Z,46.53
2022-12-15T03:15:29.117Z,44.15
2022-12-15T03:18:00.346Z,45.70
2022-12-15T03:20:27.474Z,41.20
2022-12-15T03:22:54.311Z,52.92
2022-12-15T03:25:21.473Z,44.65
2022-12-15T03:27:48.430Z,38.28
2022-12-15T03:30:15.697Z,53.10
2022-12-15T03:32:42.572Z,50.28
2022-12-15T03:35:09.937Z,42.72
2022-12-15T03:37:36.790Z,49.10
2022-12-15T03:40:04.334Z,42.53
2022-12-15T03:42:48.295Z,48.65
2022-12-15T03:45:21.160Z,41.10
2022-12-15T03:47:48.850Z,46.45
2022-12-15T03:50:21.585Z,45.95
2022-12-15T03:53:00.394Z,49.97
2022-12-15T03:55:28.952Z,41.35
2022-12-15T03:57:56.470Z,41.92
2022-12-15T04:00:27.001Z,37.20
2022-12-15T04:02:54.348Z,44.70
2022-12-15T04:05:25.819Z,44.00
2022-12-15T04:07:53.924Z,40.33
2022-12-15T04:10:25.290Z,39.97
2022-12-15T04:13:03.011Z,47.15
2022-12-15T04:15:30.490Z,44.42
2022-12-15T04:17:58.340Z,46.30
2022-12-15T04:20:25.632Z,48.15
2022-12-15T04:22:52.517Z,45.75
2022-12-15T04:25:41.311Z,41.97
2022-12-15T04:28:28.225Z,49.00
2022-12-15T04:31:19.208Z,49.20
2022-12-15T04:34:09.337Z,47.97
2022-12-15T04:36:57.123Z,46.15
2022-12-15T04:39:43.515Z,50.00
2022-12-15T04:42:29.377Z,47.58
2022-12-15T04:45:21.108Z,49.75
2022-12-15T04:48:07.799Z,49.72
2022-12-15T04:50:53.297Z,51.42
2022-12-15T04:53:39.453Z,52.42
2022-12-15T04:56:30.121Z,54.03
2022-12-15T04:59:15.850Z,48.10
2022-12-15T05:02:01.714Z,54.00
2022-12-15T05:04:47.593Z,47.60
2022-12-15T05:07:33.443Z,50.75
2022-12-15T05:10:19.292Z,56.45
2022-12-15T05:13:04.777Z,59.25
2022-12-15T05:15:51.660Z,58.60
2022-12-15T05:18:37.633Z,58.80
2022-12-15T05:21:23.366Z,47.70
2022-12-15T05:24:09.179Z,56.53
2022-12-15T05:26:55.033Z,48.92
2022-12-15T05:29:40.827Z,55.65
2022-12-15T05:32:08.605Z,51.63
2022-12-15T05:34:37.274Z,53.28
2022-12-15T05:37:05.641Z,54.08
2022-12-15T05:39:32.686Z,51.92
2022-12-15T05:42:00.205Z,57.78
2022-12-15T05:44:28.152Z,60.67
2022-12-15T05:46:55.329Z,61.38
2022-12-15T05:49:23.370Z,52.63
2022-12-15T05:51:50.830Z,54.78
2022-12-15T05:54:20.028Z,52.15
2022-12-15T05:56:50.557Z,52.78
2022-12-15T05:59:19.307Z,53.83
2022-12-15T06:01:46.903Z,51.97
2022-12-15T06:04:14.436Z,53.60
2022-12-15T06:06:42.215Z,54.10
2022-12-15T06:09:09.517Z,58.42
2022-12-15T06:11:37.677Z,62.83
2022-12-15T06:14:04.860Z,56.00
2022-12-15T06:16:32.579Z,54.78
2022-12-15T06:19:01.402Z,54.63
2022-12-15T06:21:37.522Z,58.70
2022-12-15T06:24:05.707Z,61.40
2022-12-15T06:26:37.827Z,64.90
2022-12-15T06:29:08.697Z,61.17
2022-12-15T06:31:37.260Z,69.72
2022-12-15T06:34:08.777Z,62.95
2022-12-15T06:36:36.652Z,60.78
2022-12-15T06:39:05.758Z,64.93
2022-12-15T06:41:33.502Z,60.10
2022-12-15T06:44:01.060Z,67.05
2022-12-15T06:46:30.115Z,66.10
2022-12-15T06:48:58.310Z,59.53
2022-12-15T06:51:28.897Z,64.88
2022-12-15T06:53:56.429Z,69.05
2022-12-15T06:56:32.520Z,64.88
2022-12-15T06:59:01.933Z,64.78
2022-12-15T07:01:30.314Z,63.53
2022-12-15T07:04:00.436Z,71.10
2022-12-15T07:06:34.160Z,70.10
2022-12-15T07:09:01.045Z,64.40
2022-12-15T07:11:28.328Z,63.28
2022-12-15T07:13:55.213Z,68.38
2022-12-15T07:16:23.205Z,63.05
2022-12-15T07:18:50.553Z,68.15
2022-12-15T07:21:18.113Z,56.45
2022-12-15T07:23:54.888Z,66.78
2022-12-15T07:26:24.278Z,58.50
2022-12-15T07:28:53.182Z,71.03
2022-12-15T07:31:20.480Z,69.47
2022-12-15T07:33:48.481Z,63.05
2022-12-15T07:36:16.594Z,61.03
2022-12-15T07:38:49.880Z,64.88
2022-12-15T07:41:19.894Z,61.63
2022-12-15T07:43:47.883Z,67.38
2022-12-15T07:46:16.139Z,59.33
2022-12-15T07:48:43.263Z,64.75
2022-12-15T07:51:18.812Z,64.35
2022-12-15T07:53:47.370Z,73.13
2022-12-15T07:56:15.469Z,66.85
2022-12-15T07:58:43.868Z,58.80
2022-12-15T08:01:13.299Z,61.20
2022-12-15T08:03:41.331Z,60.10
2022-12-15T08:06:11.745Z,56.28
2022-12-15T08:08:39.721Z,59.67
2022-12-15T08:11:08.606Z,64.25
2022-12-15T08:16:23.678Z,68.20
2022-12-15T08:18:50.681Z,60.30
2022-12-15T08:21:18.013Z,68.60
2022-12-15T08:23:45.376Z,63.33
2022-12-15T08:26:15.257Z,59.35
2022-12-15T08:28:43.463Z,57.33
2022-12-15T08:31:16.911Z,58.67
2022-12-15T08:33:45.184Z,46.88
2022-12-15T08:36:14.963Z,62.50
2022-12-15T08:38:43.406Z,61.45
2022-12-15T08:41:13.754Z,59.30
2022-12-15T08:43:48.179Z,72.53
2022-12-15T08:46:18.293Z,54.63
2022-12-15T08:48:45.997Z,75.43
2022-12-15T08:51:14.050Z,65.15
2022-12-15T08:53:40.893Z,62.50
2022-12-15T08:56:17.279Z,70.63
2022-12-15T08:58:45.909Z,63.88
2022-12-15T09:01:22.408Z,57.25
2022-12-15T09:03:52.243Z,61.25
2022-12-15T09:06:22.560Z,60.17
2022-12-15T09:08:50.523Z,58.22
2022-12-15T09:11:18.327Z,65.13
2022-12-15T09:13:45.249Z,52.55
2022-12-15T09:16:17.071Z,58.00
2022-12-15T09:18:47.210Z,52.92
2022-12-15T09:21:15.439Z,47.95
2022-12-15T09:23:43.184Z,49.40
2022-12-15T09:26:12.703Z,60.72
2022-12-15T09:28:39.929Z,63.65
2022-12-15T09:31:16.009Z,54.80
2022-12-15T09:33:44.438Z,56.47
2022-12-15T09:36:15.595Z,57.90
2022-12-15T09:38:43.293Z,59.10
2022-12-15T09:41:13.420Z,59.70
2022-12-15T09:44:32.930Z,56.83
2022-12-15T09:47:24.419Z,59.72
2022-12-15T09:49:58.242Z,65.30
2022-12-15T09:52:33.234Z,52.38
2022-12-15T09:55:01.928Z,58.38
2022-12-15T09:57:51.347Z,38.72
2022-12-15T10:00:23.602Z,55.25
2022-12-15T10:03:19.864Z,42.28
2022-12-15T10:06:16.252Z,40.50
2022-12-15T10:08:53.013Z,50.33
2022-12-15T10:11:55.662Z,60.17
2022-12-15T10:14:23.047Z,50.20
2022-12-15T10:17:19.944Z,53.42
2022-12-15T10:20:04.451Z,50.33
2022-12-15T10:22:34.157Z,48.15
2022-12-15T10:25:29.367Z,54.90
2022-12-15T10:28:15.995Z,59.00
2022-12-15T10:30:51.371Z,59.20
2022-12-15T10:33:21.738Z,64.78
2022-12-15T10:35:50.991Z,70.43
2022-12-15T10:38:38.623Z,63.22
2022-12-15T10:41:09.430Z,59.83
2022-12-15T10:43:41.998Z,67.53
2022-12-15T10:46:09.234Z,64.25
2022-12-15T10:48:37.146Z,59.40
2022-12-15T10:51:22.289Z,53.70
2022-12-15T10:53:53.297Z,55.97
2022-12-15T10:56:32.783Z,60.67
2022-12-15T10:59:31.851Z,67.90
2022-12-15T11:02:23.882Z,51.28
2022-12-15T11:05:18.107Z,66.65
2022-12-15T11:07:46.681Z,63.42
2022-12-15T11:10:26.751Z,67.45
2022-12-15T11:13:14.512Z,63.17
2022-12-15T11:15:47.487Z,63.22
2022-12-15T11:18:45.089Z,82.00
2022-12-15T11:21:39.635Z,73.35
2022-12-15T11:24:17.982Z,68.20
2022-12-15T11:26:53.620Z,74.43
2022-12-15T11:29:55.432Z,78.53
2022-12-15T11:32:47.354Z,60.67
2022-12-15T11:35:21.484Z,82.28
2022-12-15T11:37:55.955Z,72.07
2022-12-15T11:40:40.443Z,79.63
2022-12-15T11:43:55.501Z,73.68
2022-12-15T11:46:39.843Z,73.53
2022-12-15T11:49:41.389Z,69.93
2022-12-15T11:52:17.328Z,65.47
2022-12-15T11:54:55.435Z,71.82
2022-12-15T11:57:55.761Z,75.25
2022-12-15T12:00:23.660Z,60.13
2022-12-15T12:03:13.281Z,71.28
2022-12-15T12:05:55.415Z,82.25
2022-12-15T12:08:47.276Z,77.32
2022-12-15T12:11:45.960Z,74.85
2022-12-15T12:14:39.039Z,81.50
2022-12-15T12:17:36.943Z,67.60
2022-12-15T12:20:15.418Z,78.90
2022-12-15T12:23:05.590Z,76.20
2022-12-15T12:25:45.752Z,77.65
2022-12-15T12:28:22.968Z,76.32
2022-12-15T12:30:50.753Z,67.13
2022-12-15T12:33:34.347Z,84.40
2022-12-15T12:36:11.809Z,85.28
2022-12-15T12:38:50.746Z,86.90
2022-12-15T12:41:26.262Z,97.85
2022-12-15T12:43:58.854Z,86.30
2022-12-15T12:46:44.014Z,95.80
2022-12-15T12:49:12.143Z,84.15
2022-12-15T12:51:41.422Z,88.65
2022-12-15T12:54:36.863Z,97.15
2022-12-15T12:57:13.444Z,90.63
2022-12-15T12:59:57.624Z,101.65
2022-12-15T13:02:26.270Z,86.70
2022-12-15T13:05:43.160Z,103.80
2022-12-15T13:08:10.229Z,93.78
2022-12-15T13:10:39.823Z,93.47
2022-12-15T13:13:29.720Z,94.18
2022-12-15T13:16:25.922Z,80.60
2022-12-15T13:19:05.204Z,83.05
2022-12-15T13:21:43.029Z,84.22
2022-12-15T13:24:35.645Z,91.35
2022-12-15T13:27:14.222Z,85.95
2022-12-15T13:29:59.430Z,77.43
2022-12-15T13:32:28.743Z,78.25
2022-12-15T13:34:57.222Z,87.57
2022-12-15T13:37:43.945Z,85.90
2022-12-15T13:40:35.291Z,86.30
2022-12-15T13:43:05.475Z,72.93
2022-12-15T13:45:59.036Z,68.72
2022-12-15T13:48:30.162Z,72.50
2022-12-15T13:53:38.723Z,77.43
2022-12-15T13:56:23.419Z,65.00
2022-12-15T13:58:59.832Z,75.65
2022-12-15T14:01:32.683Z,69.60
2022-12-15T14:04:20.775Z,67.65
2022-12-15T14:06:57.664Z,71.90
2022-12-15T14:09:33.312Z,48.78
2022-12-15T14:12:04.571Z,60.58
2022-12-15T14:14:37.182Z,60.88
2022-12-15T14:17:09.057Z,65.50
2022-12-15T14:19:44.616Z,62.10
2022-12-15T14:22:28.702Z,59.03
2022-12-15T14:25:14.510Z,62.60
2022-12-15T14:27:42.036Z,57.63
2022-12-15T14:30:16.506Z,62.88
2022-12-15T14:32:47.302Z,60.85
2022-12-15T14:35:24.891Z,55.03
2022-12-15T14:37:55.830Z,57.35
2022-12-15T14:40:28.399Z,67.60
2022-12-15T14:42:56.804Z,56.70
2022-12-15T14:45:27.390Z,68.57
2022-12-15T14:51:00.362Z,68.37
2022-12-15T14:53:33.805Z,73.57
2022-12-15T14:56:33.068Z,58.38
2022-12-15T14:59:17.441Z,62.40
2022-12-15T15:02:01.964Z,67.07
2022-12-15T15:04:34.142Z,70.15
2022-12-15T15:07:04.416Z,72.50
2022-12-15T15:09:38.204Z,61.37
2022-12-15T15:12:08.408Z,46.63
2022-12-15T15:15:08.401Z,68.32
2022-12-15T15:17:39.323Z,58.50
2022-12-15T15:20:24.491Z,67.30
2022-12-15T15:23:17.886Z,63.50
2022-12-15T15:25:56.707Z,53.70
2022-12-15T15:28:28.248Z,69.70
2022-12-15T15:31:05.522Z,70.63
2022-12-15T15:33:33.354Z,68.97
2022-12-15T15:36:02.004Z,66.80
2022-12-15T15:38:38.525Z,66.13
2022-12-15T15:41:16.744Z,63.50
2022-12-15T15:43:44.004Z,58.30
2022-12-15T15:46:15.795Z,67.80
2022-12-15T15:48:47.282Z,74.78
2022-12-15T15:51:14.711Z,63.42
2022-12-15T15:53:41.750Z,64.35
2022-12-15T15:56:12.138Z,66.00
2022-12-15T15:58:39.248Z,75.10
2022-12-15T16:01:12.667Z,76.80
2022-12-15T16:03:40.412Z,61.15
2022-12-15T16:06:17.216Z,61.00
2022-12-15T16:08:46.499Z,67.75
2022-12-15T16:11:13.708Z,72.85
2022-12-15T16:13:40.652Z,66.82
2022-12-15T16:16:17.993Z,68.47
2022-12-15T16:18:45.184Z,61.17
2022-12-15T16:21:14.549Z,54.28
2022-12-15T16:23:44.898Z,77.70
2022-12-15T16:26:15.413Z,68.93
2022-12-15T16:28:42.370Z,58.70
2022-12-15T16:31:15.722Z,60.05
2022-12-15T16:33:42.782Z,60.88
2022-12-15T16:36:18.985Z,62.58
2022-12-15T16:38:45.836Z,53.88
2022-12-15T16:41:16.700Z,67.50
2022-12-15T16:43:48.157Z,68.33
2022-12-15T16:46:16.012Z,63.10
2022-12-15T16:48:43.416Z,59.70
2022-12-15T16:51:33.982Z,58.47
2022-12-15T16:54:00.894Z,66.03
2022-12-15T16:56:28.078Z,66.70
2022-12-15T16:59:15.483Z,64.55
2022-12-15T17:01:44.696Z,61.67
2022-12-15T17:04:12.160Z,60.00
2022-12-15T17:06:39.849Z,74.68
2022-12-15T17:09:08.873Z,60.53
2022-12-15T17:11:36.136Z,54.67
2022-12-15T17:14:03.000Z,57.10
2022-12-15T17:16:30.284Z,64.53
2022-12-15T17:18:57.289Z,66.45
2022-12-15T17:21:34.025Z,69.55
2022-12-15T17:24:06.440Z,64.85
2022-12-15T17:26:36.408Z,58.53
2022-12-15T17:29:13.338Z,59.65
2022-12-15T17:31:40.683Z,71.57
2022-12-15T17:34:25.504Z,63.05
2022-12-15T17:36:53.034Z,61.65
2022-12-15T17:39:21.877Z,52.90
2022-12-15T17:41:59.819Z,64.78
2022-12-15T17:44:33.627Z,64.40
2022-12-15T17:47:04.571Z,59.45
2022-12-15T17:49:36.037Z,64.72
2022-12-15T17:52:07.998Z,68.53
2022-12-15T17:57:02.702Z,74.25
2022-12-15T17:59:31.818Z,76.50
2022-12-15T18:01:59.346Z,74.40
2022-12-15T18:04:26.454Z,65.72
2022-12-15T18:06:59.683Z,65.60
2022-12-15T18:09:28.939Z,66.22
2022-12-15T18:11:56.230Z,72.22
2022-12-15T18:14:23.451Z,72.45
2022-12-15T18:16:50.926Z,66.35
2022-12-15T18:19:18.042Z,68.95
2022-12-15T18:21:45.275Z,60.55
2022-12-15T18:24:17.462Z,69.72
2022-12-15T18:26:44.862Z,56.08
2022-12-15T18:29:14.153Z,64.30
2022-12-15T18:31:42.334Z,65.30
2022-12-15T18:34:15.023Z,64.60
2022-12-15T18:36:43.024Z,63.05
2022-12-15T18:39:23.806Z,57.83
2022-12-15T18:41:52.512Z,58.67
2022-12-15T18:44:25.905Z,64.70
2022-12-15T18:46:55.328Z,53.78
2022-12-15T18:49:23.707Z,58.17
2022-12-15T18:51:51.768Z,59.53
2022-12-15T18:54:24.101Z,59.20
2022-12-15T18:56:51.668Z,65.38
2022-12-15T18:59:19.567Z,60.63
2022-12-15T19:01:48.489Z,57.97
2022-12-15T19:04:15.595Z,56.58
2022-12-15T19:06:44.440Z,65.97
2022-12-15T19:09:19.160Z,60.28
2022-12-15T19:12:06.714Z,61.28
2022-12-15T19:14:43.362Z,53.40
2022-12-15T19:17:31.471Z,50.58
2022-12-15T19:20:16.903Z,61.88
2022-12-15T19:22:45.543Z,51.83
2022-12-15T19:25:25.815Z,59.10
2022-12-15T19:27:59.691Z,49.17
2022-12-15T19:30:29.428Z,57.85
2022-12-15T19:32:56.934Z,50.63
2022-12-15T19:35:24.911Z,54.67
2022-12-15T19:37:55.129Z,51.13
2022-12-15T19:40:27.561Z,54.97
2022-12-15T19:42:55.428Z,55.65
2022-12-15T19:45:26.470Z,55.35
2022-12-15T19:47:54.158Z,48.05
2022-12-15T19:50:23.972Z,54.65
2022-12-15T19:52:55.366Z,53.72
2022-12-15T19:55:27.036Z,48.83
2022-12-15T19:57:54.181Z,62.28
2022-12-15T20:00:22.400Z,56.10
2022-12-15T20:02:51.663Z,56.47
2022-12-15T20:05:20.149Z,51.15
2022-12-15T20:07:48.485Z,51.25
2022-12-15T20:10:24.474Z,61.63
2022-12-15T20:12:55.013Z,41.78
2022-12-15T20:15:25.138Z,54.13
2022-12-15T20:17:57.012Z,54.63
2022-12-15T20:20:27.696Z,43.15
2022-12-15T20:22:59.016Z,47.28
2022-12-15T20:25:33.585Z,49.53
2022-12-15T20:28:01.577Z,51.42
2022-12-15T20:30:35.467Z,47.95
2022-12-15T20:33:04.376Z,48.28
2022-12-15T20:35:34.700Z,42.67
2022-12-15T20:38:13.418Z,51.83
2022-12-15T20:40:40.337Z,47.85
2022-12-15T20:43:18.717Z,48.92
2022-12-15T20:45:47.134Z,52.35
2022-12-15T20:48:15.389Z,53.00
2022-12-15T20:50:48.469Z,48.85
2022-12-15T20:53:23.924Z,53.25
2022-12-15T20:55:52.604Z,57.90
2022-12-15T20:58:20.587Z,56.97
2022-12-15T21:00:49.031Z,52.05
2022-12-15T21:05:53.135Z,55.13
2022-12-15T21:08:31.595Z,56.05
2022-12-15T21:11:15.381Z,57.13
2022-12-15T21:13:42.985Z,50.72
2022-12-15T21:16:28.949Z,66.15
2022-12-15T21:19:20.374Z,58.83
2022-12-15T21:21:45.797Z,62.20
2022-12-15T21:24:15.571Z,60.58
2022-12-15T21:26:43.085Z,56.80
2022-12-15T21:29:19.397Z,64.60
2022-12-15T21:31:46.654Z,58.15
2022-12-15T21:34:14.151Z,50.22
2022-12-15T21:36:44.263Z,50.85
2022-12-15T21:39:34.771Z,51.17
2022-12-15T21:42:11.754Z,51.90
2022-12-15T21:44:38.837Z,52.33
2022-12-15T21:47:47.612Z,55.67
2022-12-15T21:50:18.915Z,56.80
2022-12-15T21:52:47.478Z,60.63
2022-12-15T21:55:21.341Z,58.53
2022-12-15T21:57:48.283Z,57.35
2022-12-15T22:00:17.555Z,59.67
2022-12-15T22:02:46.074Z,54.03
2022-12-15T22:05:16.572Z,64.25
2022-12-15T22:07:43.691Z,70.53
2022-12-15T22:10:11.365Z,64.22
2022-12-15T22:12:40.181Z,74.20
2022-12-15T22:15:23.439Z,71.38
2022-12-15T22:17:50.777Z,64.68
2022-12-15T22:20:21.530Z,64.68
2022-12-15T22:22:48.561Z,74.93
2022-12-15T22:25:20.791Z,65.57
2022-12-15T22:27:48.498Z,62.05
2022-12-15T22:30:23.756Z,62.05
2022-12-15T22:32:50.736Z,68.15
2022-12-15T22:35:23.877Z,67.05
2022-12-15T22:37:53.944Z,64.85
2022-12-15T22:40:23.396Z,64.78
2022-12-15T22:42:57.241Z,64.60
2022-12-15T22:45:25.020Z,71.78
2022-12-15T22:47:53.301Z,66.72
2022-12-15T22:50:24.886Z,68.50
2022-12-15T22:52:52.213Z,70.22
2022-12-15T22:55:20.876Z,63.53
2022-12-15T22:57:59.479Z,65.07
2022-12-15T23:00:29.516Z,68.05
2022-12-15T23:05:30.644Z,71.18
2022-12-15T23:07:58.982Z,72.20
2022-12-15T23:10:44.525Z,85.93
2022-12-15T23:17:25.542Z,64.30
2022-12-15T23:19:52.372Z,75.05
2022-12-15T23:22:19.479Z,68.05
2022-12-15T23:24:46.366Z,68.30
2022-12-15T23:27:13.470Z,67.50
2022-12-15T23:29:40.475Z,72.22
2022-12-15T23:32:07.633Z,70.03
2022-12-15T23:34:35.028Z,71.63
2022-12-15T23:37:02.702Z,78.55
2022-12-15T23:39:29.644Z,77.20
2022-12-15T23:41:56.735Z,73.60
2022-12-15T23:44:23.537Z,76.93
2022-12-15T23:46:50.717Z,65.15
2022-12-15T23:49:17.551Z,79.00
2022-12-15T23:51:44.691Z,71.90
2022-12-15T23:54:11.526Z,74.25
2022-12-15T23:56:39.452Z,85.20
2022-12-15T23:59:06.793Z,72.00
